Birmingham-Shuttlesworth International Airport
KBHM : now visible

Airfield :











YOU CAN JOIN US ON...

 
LOGIN :

Register | Disclaimer

   EN    FR    IT 

 









Legend :    VFR   Marginal VFR   IFR   Intensive IFR   Very Intensive IFR
Visi :
Ceiling :
>= 8 km
>= 3000ft
5 to 8 km
1000 to 3000 ft
1500m to 5 km
500 to 1000 ft
800 to 1500m
200 to 500 ft
< 800m
< 200 ft
Symbols :   Thunderstorms  Fog  Heavy snow  Heavy precipitations  Wind > 20 kt






- Airport Elevation : 650 ft
- IATA code : BHM


KBHM - Birmingham-Shuttlesworth International

CURRENT METAR :
  • 272253Z 09003KT 10SM OVC020 24/20 A3008 RMK AO2 SLP180 T02390200

EXPIRED METARs :
  • 272153Z 10005KT 10SM BKN024 24/20 A3008 RMK AO2 SLP177 T02440200

TAF KBHM
Valid from the 28 at 00:00 until the 29 at 00:00 UTC


272339Z 2800/2824 09004KT P6SM OVC021
FM280500 11005KT P6SM SHRA OVC012
FM280900 14005KT 3SM SHRA BR OVC005
FM281300 15007KT P6SM VCSH OVC006
PROB30 2815/2818 4SM SHRA BR
FM281800 15007KT P6SM SHRA OVC011
FM282200 12007KT P6SM SHRA OVC022
KZTL FIR / North America



MET'MAP, your aeronautical weather chart ! - Copyright ORBIFLY December 2007 - Disclaimer

ORBIFLY MET'MAP TEAM :

Programming & Development : Alexandra Zaïnal
Concept & original design : Baudouin d'Aumeries
Assistance for programming : Marc-Olivier Méhu
Technical & hardware support : Manuel Goepfert

Contact : metmap@orbifly.com




SOURCES & CREDITS :

   NOAA       Earth
Advisory